createdAt,value
2022-10-29T00:01:54.300Z,5.55
2022-10-29T00:11:58.045Z,5.58
2022-10-29T00:22:02.210Z,5.67
2022-10-29T00:32:06.118Z,5.68
2022-10-29T00:42:15.657Z,5.53
2022-10-29T00:52:21.994Z,5.63
2022-10-29T01:02:26.903Z,5.68
2022-10-29T01:12:57.874Z,5.83
2022-10-29T01:23:24.188Z,5.94
2022-10-29T01:33:35.409Z,5.89
2022-10-29T01:43:51.615Z,5.93
2022-10-29T01:53:56.148Z,5.85
2022-10-29T02:04:24.992Z,5.86
2022-10-29T02:14:40.947Z,5.82
2022-10-29T02:24:44.692Z,5.80
2022-10-29T02:34:48.137Z,5.85
2022-10-29T02:44:51.749Z,5.91
2022-10-29T02:54:55.705Z,5.92
2022-10-29T03:04:59.255Z,5.85
2022-10-29T03:15:02.828Z,5.98
2022-10-29T03:25:07.226Z,6.09
2022-10-29T03:35:12.587Z,6.14
2022-10-29T03:45:16.449Z,6.21
2022-10-29T03:55:19.954Z,6.22
2022-10-29T04:05:24.026Z,6.34
2022-10-29T04:15:27.688Z,6.34
2022-10-29T04:35:55.281Z,6.47
2022-10-29T04:46:00.275Z,6.58
2022-10-29T04:56:06.023Z,6.72
2022-10-29T05:06:09.949Z,6.88
2022-10-29T05:16:13.725Z,6.95
2022-10-29T05:26:17.618Z,6.92
2022-10-29T05:36:21.481Z,6.88
2022-10-29T05:46:25.142Z,7.07
2022-10-29T05:56:29.034Z,7.22
2022-10-29T06:06:32.552Z,7.50
2022-10-29T06:16:36.920Z,7.69
2022-10-29T06:26:41.356Z,8.08
2022-10-29T06:36:45.200Z,8.52
2022-10-29T06:46:48.970Z,8.88
2022-10-29T06:56:52.748Z,9.37
2022-10-29T07:06:56.287Z,9.77
2022-10-29T07:17:01.090Z,10.33
2022-10-29T07:27:07.842Z,10.80
2022-10-29T07:37:11.554Z,11.20
2022-10-29T07:47:15.569Z,11.69
2022-10-29T07:57:19.125Z,12.36
2022-10-29T08:07:23.197Z,13.04
2022-10-29T08:17:30.342Z,13.55
2022-10-29T08:27:35.461Z,14.01
2022-10-29T08:37:44.647Z,14.19
2022-10-29T08:47:54.847Z,14.31
2022-10-29T08:58:20.218Z,14.77
2022-10-29T09:08:45.705Z,15.39
2022-10-29T09:19:21.175Z,16.11
2022-10-29T09:29:41.889Z,16.50
2022-10-29T09:39:48.776Z,16.81
2022-10-29T09:50:08.589Z,17.21
2022-10-29T10:00:46.926Z,17.54
2022-10-29T10:11:06.813Z,17.63
2022-10-29T10:21:14.516Z,17.75
2022-10-29T10:31:18.726Z,18.09
2022-10-29T10:41:34.468Z,18.65
2022-10-29T10:51:43.437Z,18.86
2022-10-29T11:01:51.227Z,19.11
2022-10-29T11:12:06.667Z,19.54
2022-10-29T11:22:39.280Z,20.20
2022-10-29T11:33:20.824Z,20.82
2022-10-29T11:43:25.299Z,21.08
2022-10-29T11:53:33.280Z,21.24
2022-10-29T12:04:15.853Z,21.29
2022-10-29T12:14:45.885Z,21.16
2022-10-29T12:25:08.171Z,21.00
2022-10-29T12:35:18.299Z,20.86
2022-10-29T12:46:19.482Z,20.53
2022-10-29T12:56:17.789Z,20.23
2022-10-29T13:06:42.825Z,19.99
2022-10-29T13:16:50.221Z,19.88
2022-10-29T13:27:10.052Z,19.79
2022-10-29T13:37:48.730Z,19.74
2022-10-29T13:47:52.566Z,19.60
2022-10-29T13:58:22.710Z,19.39
2022-10-29T14:09:08.205Z,19.09
2022-10-29T14:19:22.051Z,18.83
2022-10-29T14:29:26.282Z,18.54
2022-10-29T14:39:55.594Z,18.18
2022-10-29T14:50:07.203Z,17.84
2022-10-29T15:00:27.733Z,17.42
2022-10-29T15:10:31.762Z,16.92
2022-10-29T15:20:42.067Z,16.29
2022-10-29T15:30:46.261Z,15.70
2022-10-29T15:41:09.829Z,15.20
2022-10-29T15:51:13.897Z,14.67
2022-10-29T16:01:17.795Z,14.22
2022-10-29T16:11:22.940Z,13.56
2022-10-29T16:21:26.831Z,13.09
2022-10-29T16:31:30.879Z,12.81
2022-10-29T16:41:35.577Z,12.46
2022-10-29T16:51:39.427Z,12.21
2022-10-29T17:01:44.022Z,11.90
2022-10-29T17:11:47.975Z,11.81
2022-10-29T17:21:52.034Z,11.73
2022-10-29T17:31:56.670Z,11.62
2022-10-29T17:42:01.646Z,11.59
2022-10-29T17:52:11.600Z,11.51
2022-10-29T18:02:16.969Z,11.30
2022-10-29T18:12:22.510Z,11.14
2022-10-29T18:22:26.645Z,11.00
2022-10-29T18:32:30.610Z,10.99
2022-10-29T18:42:35.971Z,10.92
2022-10-29T18:52:42.048Z,10.66
2022-10-29T19:02:47.045Z,10.35
2022-10-29T19:12:51.480Z,10.12
2022-10-29T19:22:57.791Z,10.03
2022-10-29T19:33:07.720Z,9.81
2022-10-29T19:43:12.868Z,9.57
2022-10-29T19:53:17.137Z,9.50
2022-10-29T20:03:24.203Z,9.30
2022-10-29T20:13:33.099Z,9.02
2022-10-29T20:23:38.670Z,8.85
2022-10-29T20:33:44.081Z,8.65
2022-10-29T20:43:55.291Z,8.63
2022-10-29T20:53:59.691Z,8.54
2022-10-29T21:04:03.984Z,8.73
2022-10-29T21:14:07.959Z,8.96
2022-10-29T21:24:11.815Z,9.12
2022-10-29T21:34:16.343Z,9.36
2022-10-29T21:44:20.682Z,9.52
2022-10-29T21:54:27.432Z,9.73
2022-10-29T22:04:32.626Z,9.80
2022-10-29T22:14:36.384Z,9.90
2022-10-29T22:24:40.052Z,10.10
2022-10-29T22:34:43.513Z,10.19
2022-10-29T22:44:47.174Z,10.26
2022-10-29T22:54:50.965Z,10.26
2022-10-29T23:04:54.514Z,10.26
2022-10-29T23:14:58.285Z,10.44
2022-10-29T23:25:01.945Z,10.49
2022-10-29T23:35:05.924Z,10.51
2022-10-29T23:45:10.303Z,10.38
2022-10-29T23:55:14.081Z,10.23
